sensor_id;sensor_type;location;lat;lon;timestamp;P1;durP1;ratioP1;P2;durP2;ratioP2
10677;SDS011;5387;48.722;9.110;2023-09-08T00:02:18;5.32;;;4.43;;
10677;SDS011;5387;48.722;9.110;2023-09-08T00:04:45;7.63;;;4.93;;
10677;SDS011;5387;48.722;9.110;2023-09-08T00:07:12;7.55;;;4.40;;
10677;SDS011;5387;48.722;9.110;2023-09-08T00:09:38;6.35;;;4.30;;
10677;SDS011;5387;48.722;9.110;2023-09-08T00:12:05;6.85;;;4.45;;
10677;SDS011;5387;48.722;9.110;2023-09-08T00:14:34;12.57;;;4.25;;
10677;SDS011;5387;48.722;9.110;2023-09-08T00:17:01;8.40;;;5.00;;
10677;SDS011;5387;48.722;9.110;2023-09-08T00:19:27;10.27;;;4.90;;
10677;SDS011;5387;48.722;9.110;2023-09-08T00:21:55;5.95;;;5.05;;
10677;SDS011;5387;48.722;9.110;2023-09-08T00:24:23;5.53;;;4.72;;
10677;SDS011;5387;48.722;9.110;2023-09-08T00:26:50;5.70;;;4.70;;
10677;SDS011;5387;48.722;9.110;2023-09-08T00:29:17;7.13;;;5.13;;
10677;SDS011;5387;48.722;9.110;2023-09-08T00:31:45;6.50;;;4.20;;
10677;SDS011;5387;48.722;9.110;2023-09-08T00:34:12;5.70;;;4.65;;
10677;SDS011;5387;48.722;9.110;2023-09-08T00:36:38;6.38;;;4.40;;
10677;SDS011;5387;48.722;9.110;2023-09-08T00:39:05;6.05;;;4.80;;
10677;SDS011;5387;48.722;9.110;2023-09-08T00:41:32;5.63;;;5.05;;
10677;SDS011;5387;48.722;9.110;2023-09-08T00:43:59;8.25;;;4.80;;
10677;SDS011;5387;48.722;9.110;2023-09-08T00:46:26;7.07;;;4.57;;
10677;SDS011;5387;48.722;9.110;2023-09-08T00:48:54;5.43;;;4.25;;
10677;SDS011;5387;48.722;9.110;2023-09-08T00:51:21;5.65;;;4.38;;
10677;SDS011;5387;48.722;9.110;2023-09-08T00:56:24;4.80;;;4.30;;
10677;SDS011;5387;48.722;9.110;2023-09-08T00:58:51;7.38;;;5.35;;
10677;SDS011;5387;48.722;9.110;2023-09-08T01:01:18;6.20;;;4.82;;
10677;SDS011;5387;48.722;9.110;2023-09-08T01:03:45;4.75;;;4.00;;
10677;SDS011;5387;48.722;9.110;2023-09-08T01:06:13;5.30;;;3.97;;
10677;SDS011;5387;48.722;9.110;2023-09-08T01:08:41;7.40;;;4.70;;
10677;SDS011;5387;48.722;9.110;2023-09-08T01:11:08;4.75;;;4.25;;
10677;SDS011;5387;48.722;9.110;2023-09-08T01:13:36;7.65;;;4.20;;
10677;SDS011;5387;48.722;9.110;2023-09-08T01:16:03;7.90;;;4.40;;
10677;SDS011;5387;48.722;9.110;2023-09-08T01:18:30;4.97;;;4.47;;
10677;SDS011;5387;48.722;9.110;2023-09-08T01:21:03;9.55;;;4.85;;
10677;SDS011;5387;48.722;9.110;2023-09-08T01:23:44;5.95;;;4.50;;
10677;SDS011;5387;48.722;9.110;2023-09-08T01:26:25;4.88;;;4.38;;
10677;SDS011;5387;48.722;9.110;2023-09-08T01:28:53;7.18;;;4.47;;
10677;SDS011;5387;48.722;9.110;2023-09-08T01:31:21;10.43;;;5.45;;
10677;SDS011;5387;48.722;9.110;2023-09-08T01:33:48;5.68;;;5.07;;
10677;SDS011;5387;48.722;9.110;2023-09-08T01:36:15;5.82;;;4.88;;
10677;SDS011;5387;48.722;9.110;2023-09-08T01:38:42;6.43;;;3.90;;
10677;SDS011;5387;48.722;9.110;2023-09-08T01:41:09;5.18;;;4.65;;
10677;SDS011;5387;48.722;9.110;2023-09-08T01:43:37;5.88;;;4.88;;
10677;SDS011;5387;48.722;9.110;2023-09-08T01:46:04;6.57;;;4.70;;
10677;SDS011;5387;48.722;9.110;2023-09-08T01:48:30;5.97;;;4.57;;
10677;SDS011;5387;48.722;9.110;2023-09-08T01:50:57;5.07;;;4.07;;
10677;SDS011;5387;48.722;9.110;2023-09-08T01:53:24;6.80;;;4.53;;
10677;SDS011;5387;48.722;9.110;2023-09-08T01:55:51;7.65;;;4.75;;
10677;SDS011;5387;48.722;9.110;2023-09-08T01:58:18;6.10;;;4.47;;
10677;SDS011;5387;48.722;9.110;2023-09-08T02:00:49;6.03;;;4.50;;
10677;SDS011;5387;48.722;9.110;2023-09-08T02:03:16;5.15;;;4.35;;
10677;SDS011;5387;48.722;9.110;2023-09-08T02:05:43;11.70;;;4.30;;
10677;SDS011;5387;48.722;9.110;2023-09-08T02:08:11;5.05;;;4.43;;
10677;SDS011;5387;48.722;9.110;2023-09-08T02:10:39;6.07;;;4.60;;
10677;SDS011;5387;48.722;9.110;2023-09-08T02:13:06;5.50;;;4.13;;
10677;SDS011;5387;48.722;9.110;2023-09-08T02:15:34;5.35;;;4.53;;
10677;SDS011;5387;48.722;9.110;2023-09-08T02:18:03;5.32;;;4.50;;
10677;SDS011;5387;48.722;9.110;2023-09-08T02:20:30;7.18;;;4.45;;
10677;SDS011;5387;48.722;9.110;2023-09-08T02:22:57;5.28;;;4.38;;
10677;SDS011;5387;48.722;9.110;2023-09-08T02:25:24;4.68;;;4.18;;
10677;SDS011;5387;48.722;9.110;2023-09-08T02:27:50;4.38;;;3.97;;
10677;SDS011;5387;48.722;9.110;2023-09-08T02:30:17;13.60;;;4.90;;
10677;SDS011;5387;48.722;9.110;2023-09-08T02:32:44;6.82;;;5.40;;
10677;SDS011;5387;48.722;9.110;2023-09-08T02:35:13;8.35;;;4.85;;
10677;SDS011;5387;48.722;9.110;2023-09-08T02:37:40;9.75;;;4.53;;
10677;SDS011;5387;48.722;9.110;2023-09-08T02:40:07;5.72;;;4.72;;
10677;SDS011;5387;48.722;9.110;2023-09-08T02:42:34;4.70;;;4.22;;
10677;SDS011;5387;48.722;9.110;2023-09-08T02:45:01;6.57;;;4.68;;
10677;SDS011;5387;48.722;9.110;2023-09-08T02:47:28;7.28;;;4.20;;
10677;SDS011;5387;48.722;9.110;2023-09-08T02:49:55;10.88;;;4.68;;
10677;SDS011;5387;48.722;9.110;2023-09-08T02:52:23;7.35;;;5.00;;
10677;SDS011;5387;48.722;9.110;2023-09-08T02:54:50;4.95;;;4.45;;
10677;SDS011;5387;48.722;9.110;2023-09-08T02:57:17;7.45;;;4.22;;
10677;SDS011;5387;48.722;9.110;2023-09-08T02:59:48;6.47;;;4.78;;
10677;SDS011;5387;48.722;9.110;2023-09-08T03:02:15;4.85;;;3.90;;
10677;SDS011;5387;48.722;9.110;2023-09-08T03:04:42;7.50;;;4.20;;
10677;SDS011;5387;48.722;9.110;2023-09-08T03:07:09;7.18;;;4.57;;
10677;SDS011;5387;48.722;9.110;2023-09-08T03:09:37;7.22;;;4.80;;
10677;SDS011;5387;48.722;9.110;2023-09-08T03:12:04;5.88;;;4.68;;
10677;SDS011;5387;48.722;9.110;2023-09-08T03:14:31;8.43;;;4.50;;
10677;SDS011;5387;48.722;9.110;2023-09-08T03:16:58;6.18;;;4.30;;
10677;SDS011;5387;48.722;9.110;2023-09-08T03:19:24;9.10;;;4.47;;
10677;SDS011;5387;48.722;9.110;2023-09-08T03:21:51;5.55;;;4.60;;
10677;SDS011;5387;48.722;9.110;2023-09-08T03:24:18;5.65;;;4.43;;
10677;SDS011;5387;48.722;9.110;2023-09-08T03:26:46;7.88;;;4.20;;
10677;SDS011;5387;48.722;9.110;2023-09-08T03:29:13;8.35;;;4.40;;
10677;SDS011;5387;48.722;9.110;2023-09-08T03:31:39;4.45;;;4.05;;
10677;SDS011;5387;48.722;9.110;2023-09-08T03:34:06;6.93;;;4.88;;
10677;SDS011;5387;48.722;9.110;2023-09-08T03:36:33;6.13;;;4.63;;
10677;SDS011;5387;48.722;9.110;2023-09-08T03:39:01;4.82;;;4.28;;
10677;SDS011;5387;48.722;9.110;2023-09-08T03:41:28;9.23;;;4.40;;
10677;SDS011;5387;48.722;9.110;2023-09-08T03:43:56;6.20;;;5.03;;
10677;SDS011;5387;48.722;9.110;2023-09-08T03:46:23;4.90;;;4.40;;
10677;SDS011;5387;48.722;9.110;2023-09-08T03:48:50;4.72;;;3.83;;
10677;SDS011;5387;48.722;9.110;2023-09-08T03:51:17;5.00;;;4.28;;
10677;SDS011;5387;48.722;9.110;2023-09-08T03:53:44;5.35;;;4.32;;
10677;SDS011;5387;48.722;9.110;2023-09-08T03:56:11;4.82;;;3.90;;
10677;SDS011;5387;48.722;9.110;2023-09-08T03:58:37;5.55;;;4.47;;
10677;SDS011;5387;48.722;9.110;2023-09-08T04:01:05;5.43;;;4.22;;
10677;SDS011;5387;48.722;9.110;2023-09-08T04:03:32;6.38;;;4.60;;
10677;SDS011;5387;48.722;9.110;2023-09-08T04:05:59;6.05;;;4.78;;
10677;SDS011;5387;48.722;9.110;2023-09-08T04:08:26;6.47;;;4.90;;
10677;SDS011;5387;48.722;9.110;2023-09-08T04:10:52;5.47;;;4.80;;
10677;SDS011;5387;48.722;9.110;2023-09-08T04:13:19;6.10;;;4.68;;
10677;SDS011;5387;48.722;9.110;2023-09-08T04:15:46;5.78;;;5.00;;
10677;SDS011;5387;48.722;9.110;2023-09-08T04:18:14;9.05;;;4.53;;
10677;SDS011;5387;48.722;9.110;2023-09-08T04:20:41;6.80;;;5.25;;
10677;SDS011;5387;48.722;9.110;2023-09-08T04:23:08;13.65;;;5.30;;
10677;SDS011;5387;48.722;9.110;2023-09-08T04:25:34;9.57;;;4.90;;
10677;SDS011;5387;48.722;9.110;2023-09-08T04:28:01;6.05;;;4.65;;
10677;SDS011;5387;48.722;9.110;2023-09-08T04:30:28;8.73;;;5.10;;
10677;SDS011;5387;48.722;9.110;2023-09-08T04:32:55;9.07;;;4.97;;
10677;SDS011;5387;48.722;9.110;2023-09-08T04:35:23;5.75;;;4.38;;
10677;SDS011;5387;48.722;9.110;2023-09-08T04:37:50;10.23;;;5.40;;
10677;SDS011;5387;48.722;9.110;2023-09-08T04:40:18;8.88;;;4.35;;
10677;SDS011;5387;48.722;9.110;2023-09-08T04:42:45;8.05;;;5.00;;
10677;SDS011;5387;48.722;9.110;2023-09-08T04:45:12;11.30;;;5.15;;
10677;SDS011;5387;48.722;9.110;2023-09-08T04:47:39;6.07;;;5.00;;
10677;SDS011;5387;48.722;9.110;2023-09-08T04:50:06;7.22;;;5.15;;
10677;SDS011;5387;48.722;9.110;2023-09-08T04:52:35;5.82;;;4.78;;
10677;SDS011;5387;48.722;9.110;2023-09-08T04:55:01;5.65;;;4.63;;
10677;SDS011;5387;48.722;9.110;2023-09-08T04:57:28;7.53;;;4.93;;
10677;SDS011;5387;48.722;9.110;2023-09-08T04:59:55;6.10;;;4.88;;
10677;SDS011;5387;48.722;9.110;2023-09-08T05:02:22;7.95;;;5.43;;
10677;SDS011;5387;48.722;9.110;2023-09-08T05:04:49;6.35;;;5.03;;
10677;SDS011;5387;48.722;9.110;2023-09-08T05:07:16;8.52;;;5.00;;
10677;SDS011;5387;48.722;9.110;2023-09-08T05:09:45;10.95;;;5.00;;
10677;SDS011;5387;48.722;9.110;2023-09-08T05:12:12;8.60;;;4.45;;
10677;SDS011;5387;48.722;9.110;2023-09-08T05:14:38;5.88;;;5.20;;
10677;SDS011;5387;48.722;9.110;2023-09-08T05:17:06;8.70;;;5.45;;
10677;SDS011;5387;48.722;9.110;2023-09-08T05:19:33;8.63;;;5.15;;
10677;SDS011;5387;48.722;9.110;2023-09-08T05:21:59;7.72;;;5.03;;
10677;SDS011;5387;48.722;9.110;2023-09-08T05:24:26;7.75;;;5.10;;
10677;SDS011;5387;48.722;9.110;2023-09-08T05:29:52;8.32;;;5.32;;
10677;SDS011;5387;48.722;9.110;2023-09-08T05:32:19;9.63;;;5.15;;
10677;SDS011;5387;48.722;9.110;2023-09-08T05:34:46;7.30;;;5.03;;
10677;SDS011;5387;48.722;9.110;2023-09-08T05:37:13;6.63;;;5.13;;
10677;SDS011;5387;48.722;9.110;2023-09-08T05:39:39;6.07;;;5.47;;
10677;SDS011;5387;48.722;9.110;2023-09-08T05:42:06;6.55;;;4.65;;
10677;SDS011;5387;48.722;9.110;2023-09-08T05:44:35;7.68;;;5.63;;
10677;SDS011;5387;48.722;9.110;2023-09-08T05:47:02;6.57;;;4.63;;
10677;SDS011;5387;48.722;9.110;2023-09-08T05:49:29;9.68;;;5.35;;
10677;SDS011;5387;48.722;9.110;2023-09-08T05:51:55;11.07;;;5.88;;
10677;SDS011;5387;48.722;9.110;2023-09-08T05:54:22;5.80;;;5.18;;
10677;SDS011;5387;48.722;9.110;2023-09-08T05:56:49;7.72;;;5.80;;
10677;SDS011;5387;48.722;9.110;2023-09-08T05:59:15;7.60;;;5.57;;
10677;SDS011;5387;48.722;9.110;2023-09-08T06:01:44;6.38;;;5.40;;
10677;SDS011;5387;48.722;9.110;2023-09-08T06:04:10;10.00;;;5.78;;
10677;SDS011;5387;48.722;9.110;2023-09-08T06:06:37;7.55;;;5.95;;
10677;SDS011;5387;48.722;9.110;2023-09-08T06:09:04;10.65;;;6.50;;
10677;SDS011;5387;48.722;9.110;2023-09-08T06:11:33;6.93;;;5.53;;
10677;SDS011;5387;48.722;9.110;2023-09-08T06:14:00;11.05;;;6.25;;
10677;SDS011;5387;48.722;9.110;2023-09-08T06:16:27;9.75;;;6.05;;
10677;SDS011;5387;48.722;9.110;2023-09-08T06:18:55;8.00;;;6.18;;
10677;SDS011;5387;48.722;9.110;2023-09-08T06:21:22;15.00;;;7.03;;
10677;SDS011;5387;48.722;9.110;2023-09-08T06:23:49;7.20;;;5.97;;
10677;SDS011;5387;48.722;9.110;2023-09-08T06:26:15;9.27;;;6.47;;
10677;SDS011;5387;48.722;9.110;2023-09-08T06:28:42;11.68;;;6.03;;
10677;SDS011;5387;48.722;9.110;2023-09-08T06:31:09;5.97;;;5.22;;
10677;SDS011;5387;48.722;9.110;2023-09-08T06:33:36;8.25;;;5.68;;
10677;SDS011;5387;48.722;9.110;2023-09-08T06:36:04;7.90;;;5.63;;
10677;SDS011;5387;48.722;9.110;2023-09-08T06:38:32;9.38;;;5.57;;
10677;SDS011;5387;48.722;9.110;2023-09-08T06:40:58;6.68;;;5.78;;
10677;SDS011;5387;48.722;9.110;2023-09-08T06:43:25;8.27;;;5.93;;
10677;SDS011;5387;48.722;9.110;2023-09-08T06:45:52;9.18;;;5.95;;
10677;SDS011;5387;48.722;9.110;2023-09-08T06:48:19;10.15;;;6.18;;
10677;SDS011;5387;48.722;9.110;2023-09-08T06:50:46;8.40;;;6.25;;
10677;SDS011;5387;48.722;9.110;2023-09-08T06:53:14;10.43;;;6.22;;
10677;SDS011;5387;48.722;9.110;2023-09-08T06:55:41;7.95;;;5.75;;
10677;SDS011;5387;48.722;9.110;2023-09-08T06:58:07;8.13;;;6.10;;
10677;SDS011;5387;48.722;9.110;2023-09-08T07:00:35;5.72;;;5.13;;
10677;SDS011;5387;48.722;9.110;2023-09-08T07:03:01;16.65;;;5.82;;
10677;SDS011;5387;48.722;9.110;2023-09-08T07:05:28;5.22;;;4.72;;
10677;SDS011;5387;48.722;9.110;2023-09-08T07:07:55;6.28;;;5.63;;
10677;SDS011;5387;48.722;9.110;2023-09-08T07:10:23;7.30;;;5.55;;
10677;SDS011;5387;48.722;9.110;2023-09-08T07:12:50;6.30;;;4.93;;
10677;SDS011;5387;48.722;9.110;2023-09-08T07:15:17;8.30;;;4.75;;
10677;SDS011;5387;48.722;9.110;2023-09-08T07:17:43;6.70;;;4.75;;
10677;SDS011;5387;48.722;9.110;2023-09-08T07:20:10;6.05;;;5.43;;
10677;SDS011;5387;48.722;9.110;2023-09-08T07:22:37;6.20;;;5.35;;
10677;SDS011;5387;48.722;9.110;2023-09-08T07:25:04;12.50;;;4.57;;
10677;SDS011;5387;48.722;9.110;2023-09-08T07:27:33;7.03;;;4.75;;
10677;SDS011;5387;48.722;9.110;2023-09-08T07:30:00;5.35;;;4.38;;
10677;SDS011;5387;48.722;9.110;2023-09-08T07:32:27;5.30;;;4.80;;
10677;SDS011;5387;48.722;9.110;2023-09-08T07:34:54;11.23;;;4.53;;
10677;SDS011;5387;48.722;9.110;2023-09-08T07:37:21;5.85;;;5.07;;
10677;SDS011;5387;48.722;9.110;2023-09-08T07:39:48;5.00;;;4.43;;
10677;SDS011;5387;48.722;9.110;2023-09-08T07:42:15;4.80;;;4.28;;
10677;SDS011;5387;48.722;9.110;2023-09-08T07:44:43;7.30;;;4.65;;
10677;SDS011;5387;48.722;9.110;2023-09-08T07:47:10;4.40;;;3.70;;
10677;SDS011;5387;48.722;9.110;2023-09-08T07:49:37;6.78;;;4.40;;
10677;SDS011;5387;48.722;9.110;2023-09-08T07:52:04;5.15;;;4.75;;
10677;SDS011;5387;48.722;9.110;2023-09-08T07:54:32;6.22;;;4.13;;
10677;SDS011;5387;48.722;9.110;2023-09-08T07:56:59;7.75;;;4.82;;
10677;SDS011;5387;48.722;9.110;2023-09-08T07:59:26;4.80;;;4.38;;
10677;SDS011;5387;48.722;9.110;2023-09-08T08:01:54;7.78;;;4.35;;
10677;SDS011;5387;48.722;9.110;2023-09-08T08:04:20;4.38;;;3.95;;
10677;SDS011;5387;48.722;9.110;2023-09-08T08:06:47;4.90;;;3.95;;
10677;SDS011;5387;48.722;9.110;2023-09-08T08:09:14;5.03;;;4.45;;
10677;SDS011;5387;48.722;9.110;2023-09-08T08:11:41;6.05;;;4.53;;
10677;SDS011;5387;48.722;9.110;2023-09-08T08:14:08;7.53;;;4.55;;
10677;SDS011;5387;48.722;9.110;2023-09-08T08:16:34;6.55;;;4.15;;
10677;SDS011;5387;48.722;9.110;2023-09-08T08:19:03;5.10;;;4.60;;
10677;SDS011;5387;48.722;9.110;2023-09-08T08:21:30;9.18;;;4.65;;
10677;SDS011;5387;48.722;9.110;2023-09-08T08:23:56;5.15;;;4.20;;
10677;SDS011;5387;48.722;9.110;2023-09-08T08:26:23;6.53;;;4.03;;
10677;SDS011;5387;48.722;9.110;2023-09-08T08:28:53;8.07;;;4.07;;
10677;SDS011;5387;48.722;9.110;2023-09-08T08:31:20;4.90;;;4.00;;
10677;SDS011;5387;48.722;9.110;2023-09-08T08:33:47;5.30;;;4.40;;
10677;SDS011;5387;48.722;9.110;2023-09-08T08:36:15;5.63;;;4.10;;
10677;SDS011;5387;48.722;9.110;2023-09-08T08:38:41;5.32;;;4.45;;
10677;SDS011;5387;48.722;9.110;2023-09-08T08:41:08;5.25;;;4.05;;
10677;SDS011;5387;48.722;9.110;2023-09-08T08:43:36;5.97;;;4.45;;
10677;SDS011;5387;48.722;9.110;2023-09-08T08:46:03;4.47;;;4.05;;
10677;SDS011;5387;48.722;9.110;2023-09-08T08:48:31;9.80;;;5.15;;
10677;SDS011;5387;48.722;9.110;2023-09-08T08:50:59;6.03;;;4.65;;
10677;SDS011;5387;48.722;9.110;2023-09-08T08:53:29;5.50;;;4.03;;
10677;SDS011;5387;48.722;9.110;2023-09-08T08:55:57;7.07;;;4.68;;
10677;SDS011;5387;48.722;9.110;2023-09-08T08:58:26;5.47;;;4.68;;
10677;SDS011;5387;48.722;9.110;2023-09-08T09:00:54;7.53;;;4.68;;
10677;SDS011;5387;48.722;9.110;2023-09-08T09:03:22;6.07;;;4.72;;
10677;SDS011;5387;48.722;9.110;2023-09-08T09:05:52;11.73;;;5.15;;
10677;SDS011;5387;48.722;9.110;2023-09-08T09:08:19;6.68;;;4.93;;
10677;SDS011;5387;48.722;9.110;2023-09-08T09:10:49;6.25;;;4.80;;
10677;SDS011;5387;48.722;9.110;2023-09-08T09:13:17;9.68;;;4.95;;
10677;SDS011;5387;48.722;9.110;2023-09-08T09:15:43;6.88;;;4.97;;
10677;SDS011;5387;48.722;9.110;2023-09-08T09:18:11;9.07;;;5.30;;
10677;SDS011;5387;48.722;9.110;2023-09-08T09:20:38;6.90;;;5.25;;
10677;SDS011;5387;48.722;9.110;2023-09-08T09:23:06;10.10;;;5.53;;
10677;SDS011;5387;48.722;9.110;2023-09-08T09:25:33;7.28;;;4.95;;
10677;SDS011;5387;48.722;9.110;2023-09-08T09:28:02;4.95;;;4.45;;
10677;SDS011;5387;48.722;9.110;2023-09-08T09:30:45;7.10;;;5.45;;
10677;SDS011;5387;48.722;9.110;2023-09-08T09:33:13;8.65;;;4.88;;
10677;SDS011;5387;48.722;9.110;2023-09-08T09:35:41;5.97;;;5.38;;
10677;SDS011;5387;48.722;9.110;2023-09-08T09:38:08;9.02;;;4.93;;
10677;SDS011;5387;48.722;9.110;2023-09-08T09:40:36;9.88;;;5.75;;
10677;SDS011;5387;48.722;9.110;2023-09-08T09:43:05;7.60;;;4.97;;
10677;SDS011;5387;48.722;9.110;2023-09-08T09:45:33;5.63;;;5.13;;
10677;SDS011;5387;48.722;9.110;2023-09-08T09:48:01;5.32;;;4.82;;
10677;SDS011;5387;48.722;9.110;2023-09-08T09:50:29;5.72;;;5.05;;
10677;SDS011;5387;48.722;9.110;2023-09-08T09:52:58;9.45;;;4.90;;
10677;SDS011;5387;48.722;9.110;2023-09-08T09:55:27;6.60;;;4.93;;
10677;SDS011;5387;48.722;9.110;2023-09-08T09:57:55;8.65;;;5.22;;
10677;SDS011;5387;48.722;9.110;2023-09-08T10:00:26;6.68;;;4.75;;
10677;SDS011;5387;48.722;9.110;2023-09-08T10:02:54;7.63;;;5.55;;
10677;SDS011;5387;48.722;9.110;2023-09-08T10:05:22;7.28;;;5.10;;
10677;SDS011;5387;48.722;9.110;2023-09-08T10:07:50;7.65;;;5.88;;
10677;SDS011;5387;48.722;9.110;2023-09-08T10:10:17;6.95;;;5.00;;
10677;SDS011;5387;48.722;9.110;2023-09-08T10:12:45;6.63;;;5.10;;
10677;SDS011;5387;48.722;9.110;2023-09-08T10:15:15;5.40;;;4.78;;
10677;SDS011;5387;48.722;9.110;2023-09-08T10:17:50;5.80;;;4.78;;
10677;SDS011;5387;48.722;9.110;2023-09-08T10:20:19;10.15;;;5.00;;
10677;SDS011;5387;48.722;9.110;2023-09-08T10:22:53;10.75;;;5.18;;
10677;SDS011;5387;48.722;9.110;2023-09-08T10:25:50;5.38;;;4.88;;
10677;SDS011;5387;48.722;9.110;2023-09-08T10:28:22;5.57;;;4.70;;
10677;SDS011;5387;48.722;9.110;2023-09-08T10:30:49;6.22;;;4.78;;
10677;SDS011;5387;48.722;9.110;2023-09-08T10:33:18;6.15;;;5.47;;
10677;SDS011;5387;48.722;9.110;2023-09-08T10:35:46;6.90;;;5.03;;
10677;SDS011;5387;48.722;9.110;2023-09-08T10:38:23;5.55;;;4.97;;
10677;SDS011;5387;48.722;9.110;2023-09-08T10:40:50;5.45;;;4.50;;
10677;SDS011;5387;48.722;9.110;2023-09-08T10:43:18;7.90;;;5.28;;
10677;SDS011;5387;48.722;9.110;2023-09-08T10:45:45;6.57;;;4.75;;
10677;SDS011;5387;48.722;9.110;2023-09-08T10:48:12;7.22;;;5.57;;
10677;SDS011;5387;48.722;9.110;2023-09-08T10:50:42;8.15;;;5.40;;
10677;SDS011;5387;48.722;9.110;2023-09-08T10:53:12;6.57;;;5.20;;
10677;SDS011;5387;48.722;9.110;2023-09-08T10:55:41;6.53;;;5.20;;
10677;SDS011;5387;48.722;9.110;2023-09-08T10:58:17;5.57;;;5.03;;
10677;SDS011;5387;48.722;9.110;2023-09-08T11:00:45;5.65;;;4.47;;
10677;SDS011;5387;48.722;9.110;2023-09-08T11:03:13;5.35;;;4.70;;
10677;SDS011;5387;48.722;9.110;2023-09-08T11:05:53;6.72;;;4.35;;
10677;SDS011;5387;48.722;9.110;2023-09-08T11:08:19;5.22;;;4.55;;
10677;SDS011;5387;48.722;9.110;2023-09-08T11:10:47;6.00;;;5.18;;
10677;SDS011;5387;48.722;9.110;2023-09-08T11:13:16;7.55;;;5.07;;
10677;SDS011;5387;48.722;9.110;2023-09-08T11:15:42;5.78;;;4.90;;
10677;SDS011;5387;48.722;9.110;2023-09-08T11:18:09;7.85;;;4.85;;
10677;SDS011;5387;48.722;9.110;2023-09-08T11:20:36;6.93;;;4.90;;
10677;SDS011;5387;48.722;9.110;2023-09-08T11:23:05;9.10;;;5.18;;
10677;SDS011;5387;48.722;9.110;2023-09-08T11:25:32;5.80;;;4.43;;
10677;SDS011;5387;48.722;9.110;2023-09-08T11:27:59;10.70;;;5.60;;
10677;SDS011;5387;48.722;9.110;2023-09-08T11:30:26;5.43;;;4.90;;
10677;SDS011;5387;48.722;9.110;2023-09-08T11:32:53;7.55;;;5.68;;
10677;SDS011;5387;48.722;9.110;2023-09-08T11:35:23;5.22;;;4.53;;
10677;SDS011;5387;48.722;9.110;2023-09-08T11:37:53;10.13;;;5.18;;
10677;SDS011;5387;48.722;9.110;2023-09-08T11:40:28;5.45;;;4.78;;
10677;SDS011;5387;48.722;9.110;2023-09-08T11:42:56;5.93;;;4.47;;
10677;SDS011;5387;48.722;9.110;2023-09-08T11:45:23;5.75;;;4.82;;
10677;SDS011;5387;48.722;9.110;2023-09-08T11:47:50;10.73;;;5.60;;
10677;SDS011;5387;48.722;9.110;2023-09-08T11:50:19;8.80;;;5.30;;
10677;SDS011;5387;48.722;9.110;2023-09-08T11:52:46;6.38;;;5.78;;
10677;SDS011;5387;48.722;9.110;2023-09-08T11:55:14;6.80;;;5.40;;
10677;SDS011;5387;48.722;9.110;2023-09-08T11:57:43;6.80;;;5.35;;
10677;SDS011;5387;48.722;9.110;2023-09-08T12:00:12;10.23;;;5.05;;
10677;SDS011;5387;48.722;9.110;2023-09-08T12:02:43;6.53;;;5.80;;
10677;SDS011;5387;48.722;9.110;2023-09-08T12:05:13;5.65;;;5.15;;
10677;SDS011;5387;48.722;9.110;2023-09-08T12:07:46;6.80;;;5.18;;
10677;SDS011;5387;48.722;9.110;2023-09-08T12:10:13;5.75;;;5.25;;
10677;SDS011;5387;48.722;9.110;2023-09-08T12:12:42;6.22;;;4.88;;
10677;SDS011;5387;48.722;9.110;2023-09-08T12:15:10;15.30;;;6.22;;
10677;SDS011;5387;48.722;9.110;2023-09-08T12:17:46;7.82;;;5.25;;
10677;SDS011;5387;48.722;9.110;2023-09-08T12:20:14;6.28;;;5.18;;
10677;SDS011;5387;48.722;9.110;2023-09-08T12:22:47;6.10;;;5.35;;
10677;SDS011;5387;48.722;9.110;2023-09-08T12:25:15;7.43;;;4.90;;
10677;SDS011;5387;48.722;9.110;2023-09-08T12:27:43;6.35;;;4.88;;
10677;SDS011;5387;48.722;9.110;2023-09-08T12:30:16;6.75;;;5.20;;
10677;SDS011;5387;48.722;9.110;2023-09-08T12:32:45;6.38;;;5.75;;
10677;SDS011;5387;48.722;9.110;2023-09-08T12:35:18;9.15;;;5.35;;
10677;SDS011;5387;48.722;9.110;2023-09-08T12:37:47;6.35;;;5.57;;
10677;SDS011;5387;48.722;9.110;2023-09-08T12:40:17;7.80;;;5.65;;
10677;SDS011;5387;48.722;9.110;2023-09-08T12:42:46;6.13;;;5.20;;
10677;SDS011;5387;48.722;9.110;2023-09-08T12:45:12;8.57;;;5.57;;
10677;SDS011;5387;48.722;9.110;2023-09-08T12:47:39;8.18;;;6.03;;
10677;SDS011;5387;48.722;9.110;2023-09-08T12:50:06;6.03;;;5.40;;
10677;SDS011;5387;48.722;9.110;2023-09-08T12:52:33;14.23;;;5.65;;
10677;SDS011;5387;48.722;9.110;2023-09-08T12:55:00;7.10;;;5.97;;
10677;SDS011;5387;48.722;9.110;2023-09-08T12:57:27;9.05;;;4.90;;
10677;SDS011;5387;48.722;9.110;2023-09-08T12:59:56;5.35;;;4.82;;
10677;SDS011;5387;48.722;9.110;2023-09-08T13:02:23;5.90;;;4.80;;
10677;SDS011;5387;48.722;9.110;2023-09-08T13:04:49;5.53;;;4.90;;
10677;SDS011;5387;48.722;9.110;2023-09-08T13:07:17;11.82;;;6.20;;
10677;SDS011;5387;48.722;9.110;2023-09-08T13:09:44;5.93;;;4.82;;
10677;SDS011;5387;48.722;9.110;2023-09-08T13:12:11;5.70;;;4.65;;
10677;SDS011;5387;48.722;9.110;2023-09-08T13:14:38;7.07;;;5.47;;
10677;SDS011;5387;48.722;9.110;2023-09-08T13:17:06;5.57;;;5.07;;
10677;SDS011;5387;48.722;9.110;2023-09-08T13:19:33;7.47;;;5.22;;
10677;SDS011;5387;48.722;9.110;2023-09-08T13:22:00;5.95;;;5.25;;
10677;SDS011;5387;48.722;9.110;2023-09-08T13:24:27;6.72;;;5.22;;
10677;SDS011;5387;48.722;9.110;2023-09-08T13:26:54;8.55;;;5.75;;
10677;SDS011;5387;48.722;9.110;2023-09-08T13:29:20;9.05;;;5.55;;
10677;SDS011;5387;48.722;9.110;2023-09-08T13:31:47;5.55;;;4.82;;
10677;SDS011;5387;48.722;9.110;2023-09-08T13:34:15;5.18;;;4.47;;
10677;SDS011;5387;48.722;9.110;2023-09-08T13:36:42;6.03;;;5.05;;
10677;SDS011;5387;48.722;9.110;2023-09-08T13:39:09;6.63;;;5.18;;
10677;SDS011;5387;48.722;9.110;2023-09-08T13:41:49;6.88;;;5.35;;
10677;SDS011;5387;48.722;9.110;2023-09-08T13:44:17;5.40;;;4.90;;
10677;SDS011;5387;48.722;9.110;2023-09-08T13:46:45;7.57;;;5.22;;
10677;SDS011;5387;48.722;9.110;2023-09-08T13:49:12;8.55;;;5.35;;
10677;SDS011;5387;48.722;9.110;2023-09-08T13:51:40;5.22;;;4.72;;
10677;SDS011;5387;48.722;9.110;2023-09-08T13:54:08;8.18;;;5.35;;
10677;SDS011;5387;48.722;9.110;2023-09-08T13:56:37;6.03;;;5.43;;
10677;SDS011;5387;48.722;9.110;2023-09-08T13:59:04;5.55;;;4.82;;
10677;SDS011;5387;48.722;9.110;2023-09-08T14:01:32;7.85;;;4.97;;
10677;SDS011;5387;48.722;9.110;2023-09-08T14:03:59;6.78;;;4.63;;
10677;SDS011;5387;48.722;9.110;2023-09-08T14:06:26;11.25;;;5.07;;
10677;SDS011;5387;48.722;9.110;2023-09-08T14:08:55;7.93;;;5.43;;
10677;SDS011;5387;48.722;9.110;2023-09-08T14:11:22;7.60;;;4.80;;
10677;SDS011;5387;48.722;9.110;2023-09-08T14:13:49;5.32;;;4.80;;
10677;SDS011;5387;48.722;9.110;2023-09-08T14:16:16;4.57;;;4.10;;
10677;SDS011;5387;48.722;9.110;2023-09-08T14:18:43;5.20;;;4.70;;
10677;SDS011;5387;48.722;9.110;2023-09-08T14:21:10;5.05;;;4.55;;
10677;SDS011;5387;48.722;9.110;2023-09-08T14:23:37;6.68;;;4.78;;
10677;SDS011;5387;48.722;9.110;2023-09-08T14:26:07;5.53;;;4.85;;
10677;SDS011;5387;48.722;9.110;2023-09-08T14:28:33;7.32;;;5.05;;
10677;SDS011;5387;48.722;9.110;2023-09-08T14:31:01;7.70;;;5.00;;
10677;SDS011;5387;48.722;9.110;2023-09-08T14:33:28;5.20;;;4.68;;
10677;SDS011;5387;48.722;9.110;2023-09-08T14:35:55;5.88;;;4.80;;
10677;SDS011;5387;48.722;9.110;2023-09-08T14:38:22;9.73;;;5.00;;
10677;SDS011;5387;48.722;9.110;2023-09-08T14:40:56;6.78;;;4.53;;
10677;SDS011;5387;48.722;9.110;2023-09-08T14:43:25;5.07;;;4.22;;
10677;SDS011;5387;48.722;9.110;2023-09-08T14:45:52;4.85;;;4.30;;
10677;SDS011;5387;48.722;9.110;2023-09-08T14:48:19;5.93;;;4.63;;
10677;SDS011;5387;48.722;9.110;2023-09-08T14:50:45;5.82;;;4.35;;
10677;SDS011;5387;48.722;9.110;2023-09-08T14:53:12;5.55;;;4.07;;
10677;SDS011;5387;48.722;9.110;2023-09-08T14:55:39;6.95;;;4.40;;
10677;SDS011;5387;48.722;9.110;2023-09-08T14:58:09;5.05;;;4.55;;
10677;SDS011;5387;48.722;9.110;2023-09-08T15:00:38;5.35;;;4.85;;
10677;SDS011;5387;48.722;9.110;2023-09-08T15:03:04;6.85;;;4.45;;
10677;SDS011;5387;48.722;9.110;2023-09-08T15:05:32;6.30;;;4.40;;
10677;SDS011;5387;48.722;9.110;2023-09-08T15:07:59;5.25;;;4.45;;
10677;SDS011;5387;48.722;9.110;2023-09-08T15:10:26;5.55;;;4.68;;